Huvudsida
METAR-TAF:

METAR-TAF

Flygplatser :

Atatürk International Airport

Istanbul Atatürk, Turkiet

latitud: 40-58N, longitud: 028-49E, höjd: 48 m

Aktuellt väderrapport

Denna rapport gjordes för 38 minuter sedan, klockan 16:20 UTC
Vind 5 kt från sydväst, varierande mellan syd/sydväst och väst
Temperatur 10°C
Fuktighet 66%
Tryck 1011 hPa
Sikt 10 km eller mer
Inga moln under 1 500 m eller inga cumulonimbus

METAR: LTBA 251620Z 23005KT 210V270 CAVOK 10/04 Q1011 NOSIG RMK RWY17L VRB04KT RWY05 22004KT 190V270 RWY23 23006KT

Tid: 19:58 (16:58 UTC)

Väderprognos

Denna rapport gjordes för 6 timmar och 18 minuter sedan, klockan 10:40 UTC
Prognos gäller från 25 kl. 12 UTC till 26 kl. 18 UTC
Vind 2 kt varierande vindriktning
Sikt 10 km eller mer
Inga moln under 1 500 m eller inga cumulonimbus

TAF: LTBA 251040Z 2512/2618 VRB02KT CAVOK

Aktuella väderrapporter och prognoser från 4000 flygplatser (METAR- och TAF-rapporter).

De tillgängliga stationerna syns som gula och röda prickar på kartan.

För musen över prickarna för att se namnen på stationerna.

Klicka sedan för att få väderrapporter och prognoser.

För att ändra kartan: Klicka på de gröna knapparna med ett svart kors på för att zooma in; den gröna knappen med ett streck på för att zooma ut; eller på de gröna pilarna för angränsande kartor.


METAR-TAF: